createdAt,value
2022-09-22T00:01:29.354Z,7.50
2022-09-22T00:04:00.443Z,7.57
2022-09-22T00:06:31.788Z,8.32
2022-09-22T00:09:01.312Z,7.30
2022-09-22T00:11:33.449Z,7.28
2022-09-22T00:14:29.432Z,7.18
2022-09-22T00:17:03.845Z,7.40
2022-09-22T00:25:10.424Z,6.82
2022-09-22T00:27:37.627Z,7.25
2022-09-22T00:30:05.624Z,7.35
2022-09-22T00:32:32.789Z,7.30
2022-09-22T00:34:59.945Z,7.10
2022-09-22T00:37:27.158Z,7.50
2022-09-22T00:39:54.423Z,7.30
2022-09-22T00:42:22.324Z,7.13
2022-09-22T00:44:49.838Z,7.43
2022-09-22T00:47:32.907Z,7.47
2022-09-22T00:50:09.401Z,7.25
2022-09-22T00:53:02.407Z,7.50
2022-09-22T00:55:45.070Z,7.57
2022-09-22T00:58:17.645Z,7.45
2022-09-22T01:00:45.733Z,7.30
2022-09-22T01:03:20.485Z,6.53
2022-09-22T01:05:51.942Z,7.32
2022-09-22T01:08:21.792Z,6.93
2022-09-22T01:10:50.216Z,6.60
2022-09-22T01:13:36.175Z,7.25
2022-09-22T01:16:34.679Z,7.28
2022-09-22T01:19:36.060Z,7.22
2022-09-22T01:22:06.180Z,7.03
2022-09-22T01:24:54.702Z,7.00
2022-09-22T01:28:31.986Z,7.18
2022-09-22T01:32:03.573Z,6.68
2022-09-22T01:34:50.132Z,6.68
2022-09-22T01:37:27.102Z,5.93
2022-09-22T01:40:12.563Z,6.10
2022-09-22T01:42:49.746Z,7.10
2022-09-22T01:45:22.987Z,6.07
2022-09-22T01:48:11.606Z,6.93
2022-09-22T01:50:49.720Z,6.38
2022-09-22T01:53:22.850Z,6.55
2022-09-22T01:55:59.162Z,6.90
2022-09-22T01:58:33.381Z,7.00
2022-09-22T02:01:18.176Z,6.90
2022-09-22T02:03:56.840Z,6.80
2022-09-22T02:06:35.967Z,6.78
2022-09-22T02:09:09.980Z,6.78
2022-09-22T02:11:37.746Z,7.65
2022-09-22T02:14:06.320Z,7.00
2022-09-22T02:16:34.271Z,7.72
2022-09-22T02:19:19.977Z,7.68
2022-09-22T02:21:48.822Z,7.05
2022-09-22T02:24:42.538Z,7.50
2022-09-22T02:27:26.346Z,7.70
2022-09-22T02:30:13.064Z,8.30
2022-09-22T02:32:45.573Z,7.85
2022-09-22T02:35:13.386Z,9.23
2022-09-22T02:37:56.188Z,10.80
2022-09-22T02:40:48.745Z,10.70
2022-09-22T02:43:44.076Z,11.88
2022-09-22T02:46:24.255Z,9.82
2022-09-22T02:49:00.762Z,11.75
2022-09-22T02:51:33.074Z,10.23
2022-09-22T02:54:01.837Z,9.18
2022-09-22T02:56:29.620Z,9.25
2022-09-22T02:58:58.594Z,8.63
2022-09-22T03:01:26.595Z,8.82
2022-09-22T03:03:54.214Z,8.48
2022-09-22T03:06:21.458Z,8.90
2022-09-22T03:08:48.657Z,7.97
2022-09-22T03:11:15.797Z,6.80
2022-09-22T03:13:42.925Z,6.70
2022-09-22T03:16:10.314Z,6.80
2022-09-22T03:18:37.640Z,6.72
2022-09-22T03:21:05.291Z,7.10
2022-09-22T03:23:32.464Z,7.30
2022-09-22T03:25:59.639Z,7.50
2022-09-22T03:28:26.866Z,7.45
2022-09-22T03:30:54.087Z,7.70
2022-09-22T03:33:21.310Z,7.25
2022-09-22T03:35:48.473Z,7.53
2022-09-22T03:38:15.675Z,7.63
2022-09-22T03:40:51.079Z,8.07
2022-09-22T03:43:18.603Z,7.93
2022-09-22T03:45:46.032Z,7.70
2022-09-22T03:48:13.577Z,7.35
2022-09-22T03:50:40.825Z,7.00
2022-09-22T03:53:08.040Z,6.80
2022-09-22T03:55:35.362Z,6.50
2022-09-22T03:58:03.867Z,6.72
2022-09-22T04:00:31.128Z,7.18
2022-09-22T04:02:59.198Z,7.10
2022-09-22T04:05:26.754Z,6.97
2022-09-22T04:07:54.019Z,7.40
2022-09-22T04:10:21.474Z,8.30
2022-09-22T04:12:49.030Z,9.60
2022-09-22T04:15:16.348Z,9.25
2022-09-22T04:17:45.148Z,9.25
2022-09-22T04:20:12.388Z,9.82
2022-09-22T04:22:39.883Z,11.05
2022-09-22T04:25:08.352Z,12.38
2022-09-22T04:27:35.551Z,11.70
2022-09-22T04:30:03.204Z,11.90
2022-09-22T04:32:33.360Z,11.13
2022-09-22T04:35:00.716Z,12.43
2022-09-22T04:37:28.050Z,11.80
2022-09-22T04:39:55.873Z,13.25
2022-09-22T04:42:23.111Z,12.48
2022-09-22T04:44:50.330Z,15.45
2022-09-22T04:47:17.711Z,15.60
2022-09-22T04:49:45.130Z,14.60
2022-09-22T04:52:12.320Z,15.60
2022-09-22T04:54:39.551Z,16.60
2022-09-22T04:57:06.775Z,16.98
2022-09-22T04:59:35.412Z,15.13
2022-09-22T05:02:03.172Z,13.90
2022-09-22T05:04:30.433Z,13.43
2022-09-22T05:06:57.679Z,11.93
2022-09-22T05:09:24.856Z,12.15
2022-09-22T05:11:52.086Z,11.48
2022-09-22T05:14:24.075Z,10.65
2022-09-22T05:16:53.455Z,11.38
2022-09-22T05:19:21.270Z,10.85
2022-09-22T05:21:48.555Z,10.80
2022-09-22T05:24:15.852Z,11.40
2022-09-22T05:26:43.038Z,12.88
2022-09-22T05:29:10.373Z,12.18
2022-09-22T05:31:37.654Z,10.52
2022-09-22T05:34:04.940Z,10.93
2022-09-22T05:36:32.278Z,10.77
2022-09-22T05:38:59.826Z,10.52
2022-09-22T05:41:27.095Z,12.73
2022-09-22T05:43:54.259Z,12.20
2022-09-22T05:46:21.627Z,13.15
2022-09-22T05:48:48.898Z,11.23
2022-09-22T05:51:16.176Z,11.98
2022-09-22T05:53:43.361Z,10.68
2022-09-22T05:56:10.525Z,13.35
2022-09-22T05:58:37.789Z,11.00
2022-09-22T06:01:05.134Z,11.02
2022-09-22T06:03:32.426Z,13.05
2022-09-22T06:05:59.610Z,10.77
2022-09-22T06:08:26.777Z,12.55
2022-09-22T06:10:54.002Z,11.98
2022-09-22T06:13:21.292Z,10.77
2022-09-22T06:15:49.022Z,10.27
2022-09-22T06:18:23.383Z,10.95
2022-09-22T06:20:51.576Z,10.60
2022-09-22T06:23:19.146Z,11.38
2022-09-22T06:25:46.346Z,11.07
2022-09-22T06:28:14.686Z,11.95
2022-09-22T06:30:43.072Z,10.85
2022-09-22T06:33:12.057Z,14.35
2022-09-22T06:35:43.025Z,11.02
2022-09-22T06:38:15.090Z,12.15
2022-09-22T06:40:43.187Z,12.70
2022-09-22T06:43:24.256Z,10.32
2022-09-22T06:45:52.812Z,10.07
2022-09-22T06:48:23.804Z,10.10
2022-09-22T06:50:54.361Z,9.77
2022-09-22T06:53:25.136Z,10.30
2022-09-22T06:55:54.201Z,10.13
2022-09-22T06:58:22.518Z,10.73
2022-09-22T07:00:50.748Z,10.88
2022-09-22T07:03:22.749Z,13.80
2022-09-22T07:06:01.076Z,11.23
2022-09-22T07:08:31.039Z,11.50
2022-09-22T07:11:04.453Z,11.45
2022-09-22T07:13:33.973Z,11.13
2022-09-22T07:16:08.216Z,10.77
2022-09-22T07:21:09.452Z,10.38
2022-09-22T07:23:36.830Z,10.75
2022-09-22T07:26:13.011Z,10.95
2022-09-22T07:28:41.418Z,10.10
2022-09-22T07:31:12.605Z,10.10
2022-09-22T07:33:43.254Z,10.80
2022-09-22T07:36:14.369Z,10.65
2022-09-22T07:38:43.765Z,11.32
2022-09-22T07:41:14.740Z,11.10
2022-09-22T07:43:42.662Z,10.10
2022-09-22T07:46:09.945Z,10.40
2022-09-22T07:48:38.270Z,10.88
2022-09-22T07:51:12.898Z,10.50
2022-09-22T07:53:43.005Z,10.20
2022-09-22T07:56:13.514Z,11.80
2022-09-22T07:58:51.701Z,17.33
2022-09-22T08:01:22.476Z,14.50
2022-09-22T08:03:51.016Z,13.60
2022-09-22T08:06:23.701Z,10.48
2022-09-22T08:08:56.456Z,11.57
2022-09-22T08:11:27.369Z,11.45
2022-09-22T08:14:02.891Z,11.40
2022-09-22T08:16:34.500Z,11.73
2022-09-22T08:19:11.437Z,11.05
2022-09-22T08:21:48.339Z,10.88
2022-09-22T08:24:22.909Z,10.55
2022-09-22T08:26:53.146Z,10.40
2022-09-22T08:29:21.520Z,11.05
2022-09-22T08:31:49.728Z,10.68
2022-09-22T08:34:18.200Z,10.23
2022-09-22T08:36:48.893Z,11.10
2022-09-22T08:39:18.189Z,10.82
2022-09-22T08:41:59.899Z,10.45
2022-09-22T08:44:37.520Z,9.60
2022-09-22T08:47:05.405Z,9.65
2022-09-22T08:50:06.223Z,9.60
2022-09-22T08:52:48.928Z,8.52
2022-09-22T08:55:23.992Z,7.35
2022-09-22T08:58:23.655Z,7.93
2022-09-22T09:01:19.185Z,7.95
2022-09-22T09:04:36.314Z,7.80
2022-09-22T09:07:37.302Z,7.75
2022-09-22T09:10:16.238Z,7.15
2022-09-22T09:13:00.880Z,7.43
2022-09-22T09:15:58.373Z,7.68
2022-09-22T09:18:39.503Z,7.20
2022-09-22T09:21:14.659Z,8.00
2022-09-22T09:29:19.139Z,7.78
2022-09-22T09:31:53.826Z,8.07
2022-09-22T09:34:28.969Z,8.25
2022-09-22T09:37:07.488Z,8.48
2022-09-22T09:39:39.188Z,8.02
2022-09-22T09:42:24.846Z,7.32
2022-09-22T09:44:54.161Z,8.35
2022-09-22T09:47:59.142Z,8.10
2022-09-22T09:53:00.771Z,6.80
2022-09-22T09:55:28.207Z,6.78
2022-09-22T09:58:33.126Z,7.57
2022-09-22T10:01:01.517Z,6.22
2022-09-22T10:03:35.467Z,7.03
2022-09-22T10:06:07.249Z,6.28
2022-09-22T10:08:47.283Z,6.80
2022-09-22T10:11:15.245Z,6.65
2022-09-22T10:13:44.473Z,5.20
2022-09-22T10:16:23.863Z,4.57
2022-09-22T10:19:13.349Z,4.40
2022-09-22T10:21:40.550Z,3.60
2022-09-22T10:24:29.774Z,4.07
2022-09-22T10:26:57.484Z,4.00
2022-09-22T10:29:25.830Z,4.05
2022-09-22T10:32:16.404Z,4.20
2022-09-22T10:34:48.903Z,6.30
2022-09-22T10:37:29.624Z,5.80
2022-09-22T10:40:02.242Z,4.97
2022-09-22T10:42:40.976Z,4.97
2022-09-22T10:45:15.416Z,5.22
2022-09-22T10:48:00.358Z,5.07
2022-09-22T10:50:58.837Z,4.60
2022-09-22T10:54:07.269Z,5.40
2022-09-22T10:56:53.424Z,5.25
2022-09-22T10:59:47.672Z,5.72
2022-09-22T11:02:39.450Z,5.35
2022-09-22T11:05:43.944Z,5.20
2022-09-22T11:08:36.929Z,4.95
2022-09-22T11:11:45.907Z,5.07
2022-09-22T11:14:19.045Z,5.00
2022-09-22T11:17:16.379Z,4.90
2022-09-22T11:20:09.481Z,5.18
2022-09-22T11:23:08.048Z,4.85
2022-09-22T11:26:07.635Z,4.75
2022-09-22T11:29:24.714Z,4.95
2022-09-22T11:32:16.131Z,5.10
2022-09-22T11:35:01.638Z,4.93
2022-09-22T11:37:50.434Z,5.45
2022-09-22T11:40:52.322Z,5.15
2022-09-22T11:43:46.605Z,5.18
2022-09-22T11:46:38.465Z,5.57
2022-09-22T11:49:26.724Z,5.78
2022-09-22T11:52:31.426Z,5.57
2022-09-22T11:55:30.669Z,5.55
2022-09-22T11:58:04.804Z,5.85
2022-09-22T12:00:51.578Z,5.35
2022-09-22T12:03:31.835Z,5.82
2022-09-22T12:06:09.516Z,5.95
2022-09-22T12:08:56.607Z,5.82
2022-09-22T12:11:28.317Z,5.82
2022-09-22T12:13:58.051Z,5.43
2022-09-22T12:16:51.182Z,5.60
2022-09-22T12:19:32.931Z,5.82
2022-09-22T12:22:15.175Z,5.50
2022-09-22T12:24:47.497Z,5.18
2022-09-22T12:27:26.226Z,5.70
2022-09-22T12:30:04.542Z,5.30
2022-09-22T12:32:42.642Z,4.95
2022-09-22T12:35:31.480Z,4.65
2022-09-22T12:38:02.823Z,4.50
2022-09-22T12:40:37.364Z,4.60
2022-09-22T12:43:04.925Z,4.60
2022-09-22T12:45:34.373Z,4.60
2022-09-22T12:48:22.285Z,4.75
2022-09-22T12:50:51.078Z,5.10
2022-09-22T12:53:21.800Z,4.88
2022-09-22T12:55:57.126Z,4.90
2022-09-22T12:58:30.220Z,5.07
2022-09-22T13:01:31.717Z,5.35
2022-09-22T13:04:16.954Z,4.80
2022-09-22T13:06:44.100Z,4.63
2022-09-22T13:09:24.340Z,4.82
2022-09-22T13:12:13.280Z,5.10
2022-09-22T13:15:08.268Z,4.82
2022-09-22T13:17:50.353Z,4.90
2022-09-22T13:20:30.397Z,5.35
2022-09-22T13:23:14.118Z,4.97
2022-09-22T13:25:44.697Z,5.22
2022-09-22T13:28:26.034Z,5.13
2022-09-22T13:31:13.640Z,4.57
2022-09-22T13:33:41.111Z,4.97
2022-09-22T13:36:08.518Z,5.07
2022-09-22T13:38:45.774Z,4.47
2022-09-22T13:41:19.104Z,4.38
2022-09-22T13:44:11.845Z,3.97
2022-09-22T13:46:49.192Z,3.72
2022-09-22T13:49:39.986Z,3.78
2022-09-22T13:52:23.435Z,3.67
2022-09-22T13:54:56.998Z,3.78
2022-09-22T13:57:29.951Z,3.92
2022-09-22T14:00:04.753Z,3.53
2022-09-22T14:02:32.861Z,4.00
2022-09-22T14:05:05.689Z,3.40
2022-09-22T14:07:49.643Z,3.70
2022-09-22T14:10:27.795Z,3.65
2022-09-22T14:12:55.954Z,3.40
2022-09-22T14:15:43.572Z,4.10
2022-09-22T14:18:19.791Z,3.67
2022-09-22T14:20:48.373Z,3.80
2022-09-22T14:23:37.248Z,3.45
2022-09-22T14:26:24.331Z,3.90
2022-09-22T14:28:53.691Z,3.75
2022-09-22T14:31:29.472Z,3.70
2022-09-22T14:33:57.480Z,3.80
2022-09-22T14:36:26.365Z,3.55
2022-09-22T14:39:09.705Z,3.30
2022-09-22T14:41:38.402Z,3.38
2022-09-22T14:44:32.643Z,3.08
2022-09-22T14:47:29.098Z,3.33
2022-09-22T14:50:20.488Z,3.47
2022-09-22T14:52:58.180Z,3.90
2022-09-22T14:55:34.504Z,4.10
2022-09-22T14:58:12.100Z,3.88
2022-09-22T15:01:20.428Z,3.97
2022-09-22T15:04:23.371Z,3.88
2022-09-22T15:06:56.863Z,4.05
2022-09-22T15:09:38.833Z,3.70
2022-09-22T15:12:25.731Z,3.70
2022-09-22T15:15:00.244Z,3.55
2022-09-22T15:17:54.060Z,3.70
2022-09-22T15:20:57.118Z,3.38
2022-09-22T15:23:31.757Z,3.90
2022-09-22T15:26:04.103Z,3.53
2022-09-22T15:28:37.207Z,3.50
2022-09-22T15:31:06.121Z,3.40
2022-09-22T15:33:33.667Z,3.22
2022-09-22T15:36:13.043Z,3.35
2022-09-22T15:38:41.312Z,3.30
2022-09-22T15:41:11.865Z,3.40
2022-09-22T15:43:40.786Z,3.00
2022-09-22T15:46:23.312Z,2.92
2022-09-22T15:48:50.490Z,3.10
2022-09-22T15:51:17.659Z,3.05
2022-09-22T15:53:45.528Z,3.15
2022-09-22T15:56:19.960Z,3.40
2022-09-22T15:58:49.938Z,3.38
2022-09-22T16:01:17.735Z,3.45
2022-09-22T16:03:46.164Z,3.50
2022-09-22T16:06:17.058Z,3.58
2022-09-22T16:08:51.602Z,3.75
2022-09-22T16:11:31.155Z,3.92
2022-09-22T16:14:03.514Z,3.60
2022-09-22T16:16:33.621Z,3.63
2022-09-22T16:19:01.441Z,3.72
2022-09-22T16:21:38.673Z,4.05
2022-09-22T16:24:10.208Z,3.83
2022-09-22T16:26:39.953Z,3.70
2022-09-22T16:29:08.666Z,4.07
2022-09-22T16:31:37.307Z,3.90
2022-09-22T16:34:06.759Z,4.15
2022-09-22T16:36:36.498Z,3.88
2022-09-22T16:39:05.503Z,3.92
2022-09-22T16:41:35.225Z,4.10
2022-09-22T16:44:03.980Z,4.07
2022-09-22T16:46:33.785Z,4.03
2022-09-22T16:49:05.807Z,3.88
2022-09-22T16:51:36.440Z,4.15
2022-09-22T16:54:07.039Z,4.40
2022-09-22T16:56:37.895Z,4.22
2022-09-22T16:59:05.965Z,6.55
2022-09-22T17:01:37.743Z,6.80
2022-09-22T17:04:07.692Z,5.28
2022-09-22T17:06:37.740Z,5.18
2022-09-22T17:09:06.845Z,5.10
2022-09-22T17:11:39.237Z,5.10
2022-09-22T17:14:13.660Z,4.85
2022-09-22T17:16:48.725Z,4.63
2022-09-22T17:19:26.250Z,4.80
2022-09-22T17:21:55.807Z,9.52
2022-09-22T17:24:25.492Z,10.30
2022-09-22T17:26:56.149Z,9.23
2022-09-22T17:29:26.886Z,8.82
2022-09-22T17:32:02.708Z,8.45
2022-09-22T17:34:33.010Z,8.90
2022-09-22T17:37:01.389Z,9.60
2022-09-22T17:39:30.124Z,9.15
2022-09-22T17:41:57.402Z,8.23
2022-09-22T17:44:26.696Z,8.23
2022-09-22T17:47:12.642Z,8.77
2022-09-22T17:49:59.095Z,8.85
2022-09-22T17:52:29.688Z,9.50
2022-09-22T17:55:09.181Z,10.18
2022-09-22T17:57:42.815Z,12.82
2022-09-22T18:00:24.596Z,9.68
2022-09-22T18:02:54.211Z,9.73
2022-09-22T18:05:26.793Z,8.73
2022-09-22T18:07:58.607Z,8.52
2022-09-22T18:10:32.327Z,11.52
2022-09-22T18:13:00.991Z,12.13
2022-09-22T18:15:29.278Z,10.65
2022-09-22T18:17:58.117Z,13.38
2022-09-22T18:20:26.311Z,14.40
2022-09-22T18:22:54.797Z,13.93
2022-09-22T18:25:25.531Z,12.88
2022-09-22T18:27:53.608Z,12.75
2022-09-22T18:30:20.948Z,8.48
2022-09-22T18:32:48.986Z,8.45
2022-09-22T18:35:16.844Z,12.32
2022-09-22T18:37:44.195Z,10.32
2022-09-22T18:40:12.665Z,10.75
2022-09-22T18:42:41.522Z,11.98
2022-09-22T18:45:11.089Z,13.38
2022-09-22T18:47:40.882Z,11.23
2022-09-22T18:50:09.881Z,17.38
2022-09-22T18:52:37.393Z,11.10
2022-09-22T18:55:09.396Z,11.52
2022-09-22T18:57:36.629Z,11.95
2022-09-22T19:00:05.840Z,13.35
2022-09-22T19:02:33.121Z,17.05
2022-09-22T19:05:00.318Z,20.42
2022-09-22T19:07:43.098Z,18.20
2022-09-22T19:10:14.184Z,11.05
2022-09-22T19:12:42.720Z,10.27
2022-09-22T19:15:16.759Z,9.63
2022-09-22T19:17:47.007Z,8.35
2022-09-22T19:20:18.490Z,8.85
2022-09-22T19:22:47.079Z,10.90
2022-09-22T19:25:16.076Z,14.63
2022-09-22T19:27:43.423Z,15.00
2022-09-22T19:30:11.646Z,14.45
2022-09-22T19:32:40.389Z,12.05
2022-09-22T19:35:08.992Z,12.00
2022-09-22T19:37:36.715Z,10.15
2022-09-22T19:40:05.872Z,9.32
2022-09-22T19:42:39.222Z,9.30
2022-09-22T19:47:35.158Z,8.23
2022-09-22T19:50:02.269Z,8.50
2022-09-22T19:52:29.472Z,8.30
2022-09-22T19:54:56.857Z,8.15
2022-09-22T19:57:24.310Z,8.43
2022-09-22T19:59:51.506Z,9.18
2022-09-22T20:02:20.840Z,9.30
2022-09-22T20:04:48.044Z,9.60
2022-09-22T20:07:15.387Z,9.65
2022-09-22T20:09:45.931Z,9.30
2022-09-22T20:15:05.936Z,9.20
2022-09-22T20:17:33.131Z,8.73
2022-09-22T20:20:00.721Z,9.25
2022-09-22T20:22:30.351Z,10.07
2022-09-22T20:25:01.498Z,9.20
2022-09-22T20:27:32.995Z,9.70
2022-09-22T20:30:00.873Z,8.82
2022-09-22T20:32:34.618Z,9.15
2022-09-22T20:35:01.975Z,9.32
2022-09-22T20:37:31.917Z,10.88
2022-09-22T20:40:07.520Z,35.60
2022-09-22T20:42:34.811Z,55.42
2022-09-22T20:45:01.983Z,30.48
2022-09-22T20:47:29.127Z,21.77
2022-09-22T20:49:57.169Z,16.08
2022-09-22T20:52:24.295Z,15.93
2022-09-22T20:54:51.481Z,13.02
2022-09-22T20:57:18.655Z,11.25
2022-09-22T20:59:46.178Z,11.38
2022-09-22T21:02:15.054Z,11.80
2022-09-22T21:04:42.775Z,10.35
2022-09-22T21:07:11.600Z,10.75
2022-09-22T21:09:57.616Z,11.55
2022-09-22T21:12:30.734Z,11.15
2022-09-22T21:14:58.861Z,10.93
2022-09-22T21:17:27.874Z,10.15
2022-09-22T21:19:57.859Z,10.43
2022-09-22T21:22:28.223Z,10.27
2022-09-22T21:24:56.416Z,11.60
2022-09-22T21:27:25.145Z,14.68
2022-09-22T21:29:53.265Z,19.50
2022-09-22T21:32:20.761Z,18.85
2022-09-22T21:34:48.044Z,15.32
2022-09-22T21:37:15.198Z,14.88
2022-09-22T21:39:42.422Z,12.40
2022-09-22T21:42:09.647Z,12.55
2022-09-22T21:44:36.759Z,11.98
2022-09-22T21:47:04.907Z,14.05
2022-09-22T21:49:32.975Z,22.15
2022-09-22T21:52:01.193Z,19.35
2022-09-22T21:54:28.417Z,15.60
2022-09-22T21:56:56.700Z,16.40
2022-09-22T21:59:23.888Z,15.60
2022-09-22T22:01:51.112Z,16.30
2022-09-22T22:04:18.421Z,17.17
2022-09-22T22:06:46.825Z,18.23
2022-09-22T22:09:23.281Z,17.60
2022-09-22T22:11:57.339Z,16.52
2022-09-22T22:14:34.934Z,15.60
2022-09-22T22:17:02.394Z,17.08
2022-09-22T22:19:29.999Z,15.15
2022-09-22T22:21:57.275Z,21.23
2022-09-22T22:24:28.850Z,17.00
2022-09-22T22:27:10.177Z,12.77
2022-09-22T22:29:38.739Z,14.70
2022-09-22T22:32:09.171Z,18.15
2022-09-22T22:34:36.844Z,18.60
2022-09-22T22:37:07.133Z,17.02
2022-09-22T22:39:34.553Z,16.02
2022-09-22T22:42:01.711Z,17.60
2022-09-22T22:44:29.050Z,14.90
2022-09-22T22:46:56.194Z,14.65
2022-09-22T22:49:23.408Z,15.13
2022-09-22T22:51:52.270Z,15.38
2022-09-22T22:54:19.519Z,16.02
2022-09-22T22:56:50.338Z,16.92
2022-09-22T22:59:18.961Z,17.25
2022-09-22T23:01:46.316Z,17.13
2022-09-22T23:04:13.713Z,17.70
2022-09-22T23:06:47.761Z,17.55
2022-09-22T23:09:17.263Z,16.08
2022-09-22T23:11:46.466Z,16.10
2022-09-22T23:14:16.210Z,15.73
2022-09-22T23:16:49.603Z,14.43
2022-09-22T23:19:18.610Z,16.50
2022-09-22T23:21:46.488Z,17.70
2022-09-22T23:24:16.600Z,17.38
2022-09-22T23:26:45.931Z,17.02
2022-09-22T23:29:13.590Z,16.60
2022-09-22T23:31:40.881Z,16.65
2022-09-22T23:34:08.183Z,16.50
2022-09-22T23:36:35.738Z,14.73
2022-09-22T23:39:04.351Z,15.07
2022-09-22T23:41:37.315Z,15.40
2022-09-22T23:44:08.655Z,15.95
2022-09-22T23:46:37.555Z,14.00
2022-09-22T23:49:06.179Z,13.27
2022-09-22T23:51:33.355Z,12.38
2022-09-22T23:54:00.558Z,12.55
2022-09-22T23:56:27.897Z,13.95
2022-09-22T23:58:55.249Z,16.38
